Terminal Aerodrome Forecast
Issued by NWS Shreveport, LA

Home | Current Version | Previous Version | Text Only | Print | Product List | Glossary On
Versions: 1 2 3 4 5 6 7 8 9 10 11 12 13 14 15 16 17
000
FTUS44 KSHV 300540
TAFTXK
TAF
KTXK 300540Z 3006/3106 22008KT P6SM SKC
     FM300800 23007KT 6SM BR BKN100
      TEMPO 3010/3013 26007KT 3SM -SHRA BR BKN030
     FM301300 29008KT P6SM SCT030 BKN050
     FM301800 30007KT P6SM BKN050
     FM310000 32007KT P6SM SKC=

USA.gov is the U.S. government's official web portal to all federal, state and local government web resources and services.